sensor_id;sensor_type;location;lat;lon;timestamp;P1;durP1;ratioP1;P2;durP2;ratioP2
14300;SDS011;7234;59.306;18.024;2023-10-31T00:00:53;9.10;;;3.80;;
14300;SDS011;7234;59.306;18.024;2023-10-31T00:03:21;10.30;;;4.20;;
14300;SDS011;7234;59.306;18.024;2023-10-31T00:05:48;10.37;;;3.70;;
14300;SDS011;7234;59.306;18.024;2023-10-31T00:08:15;10.47;;;3.93;;
14300;SDS011;7234;59.306;18.024;2023-10-31T00:10:42;9.00;;;3.30;;
14300;SDS011;7234;59.306;18.024;2023-10-31T00:13:11;12.83;;;4.10;;
14300;SDS011;7234;59.306;18.024;2023-10-31T00:15:38;8.10;;;3.60;;
14300;SDS011;7234;59.306;18.024;2023-10-31T00:18:05;11.17;;;3.83;;
14300;SDS011;7234;59.306;18.024;2023-10-31T00:20:33;10.00;;;3.90;;
14300;SDS011;7234;59.306;18.024;2023-10-31T00:23:00;8.03;;;3.60;;
14300;SDS011;7234;59.306;18.024;2023-10-31T00:25:27;8.90;;;3.67;;
14300;SDS011;7234;59.306;18.024;2023-10-31T00:27:54;11.50;;;3.73;;
14300;SDS011;7234;59.306;18.024;2023-10-31T00:30:22;9.60;;;3.03;;
14300;SDS011;7234;59.306;18.024;2023-10-31T00:32:49;7.67;;;3.80;;
14300;SDS011;7234;59.306;18.024;2023-10-31T00:35:16;10.30;;;3.47;;
14300;SDS011;7234;59.306;18.024;2023-10-31T00:37:45;8.37;;;3.17;;
14300;SDS011;7234;59.306;18.024;2023-10-31T00:40:12;6.43;;;3.00;;
14300;SDS011;7234;59.306;18.024;2023-10-31T00:42:41;7.03;;;3.07;;
14300;SDS011;7234;59.306;18.024;2023-10-31T00:45:08;7.47;;;2.60;;
14300;SDS011;7234;59.306;18.024;2023-10-31T00:47:36;8.33;;;3.07;;
14300;SDS011;7234;59.306;18.024;2023-10-31T00:50:04;10.13;;;2.90;;
14300;SDS011;7234;59.306;18.024;2023-10-31T00:52:31;11.70;;;3.20;;
14300;SDS011;7234;59.306;18.024;2023-10-31T00:55:00;6.97;;;2.90;;
14300;SDS011;7234;59.306;18.024;2023-10-31T00:57:27;8.63;;;3.10;;
14300;SDS011;7234;59.306;18.024;2023-10-31T00:59:55;9.50;;;2.90;;
14300;SDS011;7234;59.306;18.024;2023-10-31T01:02:24;6.27;;;2.70;;
14300;SDS011;7234;59.306;18.024;2023-10-31T01:04:51;5.37;;;2.77;;
14300;SDS011;7234;59.306;18.024;2023-10-31T01:07:18;7.97;;;2.73;;
14300;SDS011;7234;59.306;18.024;2023-10-31T01:09:47;7.17;;;2.80;;
14300;SDS011;7234;59.306;18.024;2023-10-31T01:12:16;10.73;;;2.53;;
14300;SDS011;7234;59.306;18.024;2023-10-31T01:14:43;5.97;;;2.63;;
14300;SDS011;7234;59.306;18.024;2023-10-31T01:17:10;4.67;;;2.37;;
14300;SDS011;7234;59.306;18.024;2023-10-31T01:19:37;8.07;;;2.63;;
14300;SDS011;7234;59.306;18.024;2023-10-31T01:22:05;12.03;;;3.20;;
14300;SDS011;7234;59.306;18.024;2023-10-31T01:24:33;9.73;;;2.47;;
14300;SDS011;7234;59.306;18.024;2023-10-31T01:27:01;9.23;;;2.80;;
14300;SDS011;7234;59.306;18.024;2023-10-31T01:29:29;4.17;;;2.80;;
14300;SDS011;7234;59.306;18.024;2023-10-31T01:31:56;6.67;;;2.60;;
14300;SDS011;7234;59.306;18.024;2023-10-31T01:34:23;9.03;;;3.13;;
14300;SDS011;7234;59.306;18.024;2023-10-31T01:36:50;3.83;;;2.23;;
14300;SDS011;7234;59.306;18.024;2023-10-31T01:39:17;6.10;;;3.03;;
14300;SDS011;7234;59.306;18.024;2023-10-31T01:41:44;11.17;;;3.33;;
14300;SDS011;7234;59.306;18.024;2023-10-31T01:44:13;9.93;;;3.03;;
14300;SDS011;7234;59.306;18.024;2023-10-31T01:46:44;7.00;;;2.73;;
14300;SDS011;7234;59.306;18.024;2023-10-31T01:49:11;8.97;;;2.47;;
14300;SDS011;7234;59.306;18.024;2023-10-31T01:51:40;8.90;;;2.53;;
14300;SDS011;7234;59.306;18.024;2023-10-31T01:54:08;6.37;;;2.33;;
14300;SDS011;7234;59.306;18.024;2023-10-31T01:56:36;5.77;;;2.60;;
14300;SDS011;7234;59.306;18.024;2023-10-31T01:59:04;6.80;;;2.30;;
14300;SDS011;7234;59.306;18.024;2023-10-31T02:01:32;6.80;;;2.47;;
14300;SDS011;7234;59.306;18.024;2023-10-31T02:04:04;7.73;;;2.50;;
14300;SDS011;7234;59.306;18.024;2023-10-31T02:06:30;6.90;;;2.33;;
14300;SDS011;7234;59.306;18.024;2023-10-31T02:08:57;8.37;;;2.60;;
14300;SDS011;7234;59.306;18.024;2023-10-31T02:11:24;6.60;;;3.00;;
14300;SDS011;7234;59.306;18.024;2023-10-31T02:13:52;5.93;;;2.50;;
14300;SDS011;7234;59.306;18.024;2023-10-31T02:16:19;6.90;;;3.63;;
14300;SDS011;7234;59.306;18.024;2023-10-31T02:18:46;15.70;;;3.10;;
14300;SDS011;7234;59.306;18.024;2023-10-31T02:21:15;5.20;;;2.83;;
14300;SDS011;7234;59.306;18.024;2023-10-31T02:23:56;7.03;;;2.83;;
14300;SDS011;7234;59.306;18.024;2023-10-31T02:26:27;8.27;;;2.50;;
14300;SDS011;7234;59.306;18.024;2023-10-31T02:28:55;9.77;;;3.13;;
14300;SDS011;7234;59.306;18.024;2023-10-31T02:31:22;8.63;;;2.70;;
14300;SDS011;7234;59.306;18.024;2023-10-31T02:33:49;8.10;;;2.60;;
14300;SDS011;7234;59.306;18.024;2023-10-31T02:36:16;8.37;;;2.70;;
14300;SDS011;7234;59.306;18.024;2023-10-31T02:38:43;8.17;;;2.97;;
14300;SDS011;7234;59.306;18.024;2023-10-31T02:41:12;8.07;;;3.17;;
14300;SDS011;7234;59.306;18.024;2023-10-31T02:43:41;9.90;;;3.10;;
14300;SDS011;7234;59.306;18.024;2023-10-31T02:46:08;6.83;;;2.80;;
14300;SDS011;7234;59.306;18.024;2023-10-31T02:48:37;12.07;;;3.43;;
14300;SDS011;7234;59.306;18.024;2023-10-31T02:51:05;12.03;;;3.10;;
14300;SDS011;7234;59.306;18.024;2023-10-31T02:53:32;13.93;;;3.57;;
14300;SDS011;7234;59.306;18.024;2023-10-31T02:56:00;12.03;;;3.10;;
14300;SDS011;7234;59.306;18.024;2023-10-31T02:58:29;9.13;;;3.70;;
14300;SDS011;7234;59.306;18.024;2023-10-31T03:00:56;8.53;;;3.27;;
14300;SDS011;7234;59.306;18.024;2023-10-31T03:03:23;9.87;;;3.40;;
14300;SDS011;7234;59.306;18.024;2023-10-31T03:05:50;8.40;;;3.60;;
14300;SDS011;7234;59.306;18.024;2023-10-31T03:08:17;11.13;;;3.30;;
14300;SDS011;7234;59.306;18.024;2023-10-31T03:10:47;9.63;;;3.20;;
14300;SDS011;7234;59.306;18.024;2023-10-31T03:13:17;9.40;;;3.20;;
14300;SDS011;7234;59.306;18.024;2023-10-31T03:15:46;8.40;;;3.63;;
14300;SDS011;7234;59.306;18.024;2023-10-31T03:18:14;11.37;;;3.67;;
14300;SDS011;7234;59.306;18.024;2023-10-31T03:20:43;7.40;;;3.10;;
14300;SDS011;7234;59.306;18.024;2023-10-31T03:23:11;8.07;;;3.57;;
14300;SDS011;7234;59.306;18.024;2023-10-31T03:25:38;9.07;;;3.43;;
14300;SDS011;7234;59.306;18.024;2023-10-31T03:28:07;9.23;;;3.60;;
14300;SDS011;7234;59.306;18.024;2023-10-31T03:30:44;11.97;;;4.00;;
14300;SDS011;7234;59.306;18.024;2023-10-31T03:33:14;13.30;;;4.70;;
14300;SDS011;7234;59.306;18.024;2023-10-31T03:35:41;15.20;;;5.00;;
14300;SDS011;7234;59.306;18.024;2023-10-31T03:38:09;9.87;;;4.30;;
14300;SDS011;7234;59.306;18.024;2023-10-31T03:40:36;13.43;;;4.63;;
14300;SDS011;7234;59.306;18.024;2023-10-31T03:43:05;10.07;;;4.20;;
14300;SDS011;7234;59.306;18.024;2023-10-31T03:45:32;7.20;;;3.77;;
14300;SDS011;7234;59.306;18.024;2023-10-31T03:48:00;7.77;;;3.93;;
14300;SDS011;7234;59.306;18.024;2023-10-31T03:50:27;12.53;;;4.23;;
14300;SDS011;7234;59.306;18.024;2023-10-31T03:52:55;8.00;;;3.47;;
14300;SDS011;7234;59.306;18.024;2023-10-31T03:55:22;7.43;;;3.67;;
14300;SDS011;7234;59.306;18.024;2023-10-31T03:57:49;7.53;;;3.50;;
14300;SDS011;7234;59.306;18.024;2023-10-31T04:00:16;10.17;;;3.53;;
14300;SDS011;7234;59.306;18.024;2023-10-31T04:02:44;11.00;;;4.30;;
14300;SDS011;7234;59.306;18.024;2023-10-31T04:05:12;10.33;;;4.40;;
14300;SDS011;7234;59.306;18.024;2023-10-31T04:07:39;10.40;;;4.10;;
14300;SDS011;7234;59.306;18.024;2023-10-31T04:10:07;11.27;;;4.13;;
14300;SDS011;7234;59.306;18.024;2023-10-31T04:12:34;9.30;;;4.57;;
14300;SDS011;7234;59.306;18.024;2023-10-31T04:15:02;7.00;;;3.47;;
14300;SDS011;7234;59.306;18.024;2023-10-31T04:17:29;8.30;;;3.77;;
14300;SDS011;7234;59.306;18.024;2023-10-31T04:19:56;14.20;;;4.27;;
14300;SDS011;7234;59.306;18.024;2023-10-31T04:22:25;11.70;;;4.33;;
14300;SDS011;7234;59.306;18.024;2023-10-31T04:24:52;12.10;;;4.67;;
14300;SDS011;7234;59.306;18.024;2023-10-31T04:27:20;12.37;;;3.90;;
14300;SDS011;7234;59.306;18.024;2023-10-31T04:29:47;10.00;;;3.50;;
14300;SDS011;7234;59.306;18.024;2023-10-31T04:32:14;7.83;;;3.50;;
14300;SDS011;7234;59.306;18.024;2023-10-31T04:34:41;7.77;;;3.53;;
14300;SDS011;7234;59.306;18.024;2023-10-31T04:37:08;11.13;;;4.00;;
14300;SDS011;7234;59.306;18.024;2023-10-31T04:39:37;8.47;;;3.53;;
14300;SDS011;7234;59.306;18.024;2023-10-31T04:42:04;14.63;;;4.03;;
14300;SDS011;7234;59.306;18.024;2023-10-31T04:44:31;10.48;;;4.13;;
14300;SDS011;7234;59.306;18.024;2023-10-31T04:46:58;12.77;;;3.90;;
14300;SDS011;7234;59.306;18.024;2023-10-31T04:49:26;13.03;;;4.07;;
14300;SDS011;7234;59.306;18.024;2023-10-31T04:51:53;8.57;;;3.70;;
14300;SDS011;7234;59.306;18.024;2023-10-31T04:54:20;8.03;;;3.70;;
14300;SDS011;7234;59.306;18.024;2023-10-31T04:56:49;6.97;;;3.77;;
14300;SDS011;7234;59.306;18.024;2023-10-31T04:59:16;9.85;;;3.70;;
14300;SDS011;7234;59.306;18.024;2023-10-31T05:01:47;9.35;;;3.50;;
14300;SDS011;7234;59.306;18.024;2023-10-31T05:04:16;13.05;;;3.88;;
14300;SDS011;7234;59.306;18.024;2023-10-31T05:06:43;12.13;;;3.97;;
14300;SDS011;7234;59.306;18.024;2023-10-31T05:09:11;11.40;;;4.13;;
14300;SDS011;7234;59.306;18.024;2023-10-31T05:11:41;8.03;;;3.90;;
14300;SDS011;7234;59.306;18.024;2023-10-31T05:14:10;7.95;;;3.63;;
14300;SDS011;7234;59.306;18.024;2023-10-31T05:16:41;8.82;;;4.05;;
14300;SDS011;7234;59.306;18.024;2023-10-31T05:19:17;9.80;;;3.77;;
14300;SDS011;7234;59.306;18.024;2023-10-31T05:21:44;10.17;;;4.10;;
14300;SDS011;7234;59.306;18.024;2023-10-31T05:24:11;10.80;;;3.80;;
14300;SDS011;7234;59.306;18.024;2023-10-31T05:26:39;11.97;;;4.33;;
14300;SDS011;7234;59.306;18.024;2023-10-31T05:29:07;11.10;;;4.07;;
14300;SDS011;7234;59.306;18.024;2023-10-31T05:31:37;9.97;;;4.10;;
14300;SDS011;7234;59.306;18.024;2023-10-31T05:34:04;11.40;;;5.33;;
14300;SDS011;7234;59.306;18.024;2023-10-31T05:36:31;9.23;;;3.73;;
14300;SDS011;7234;59.306;18.024;2023-10-31T05:38:59;14.63;;;4.72;;
14300;SDS011;7234;59.306;18.024;2023-10-31T05:41:26;11.27;;;4.40;;
14300;SDS011;7234;59.306;18.024;2023-10-31T05:43:53;13.27;;;4.30;;
14300;SDS011;7234;59.306;18.024;2023-10-31T05:46:20;9.63;;;4.32;;
14300;SDS011;7234;59.306;18.024;2023-10-31T05:48:51;10.65;;;4.07;;
14300;SDS011;7234;59.306;18.024;2023-10-31T05:51:20;9.82;;;4.28;;
14300;SDS011;7234;59.306;18.024;2023-10-31T05:54:00;8.50;;;4.00;;
14300;SDS011;7234;59.306;18.024;2023-10-31T05:56:27;14.43;;;4.80;;
14300;SDS011;7234;59.306;18.024;2023-10-31T05:58:54;18.47;;;5.10;;
14300;SDS011;7234;59.306;18.024;2023-10-31T06:01:21;13.35;;;4.20;;
14300;SDS011;7234;59.306;18.024;2023-10-31T06:03:48;9.65;;;4.22;;
14300;SDS011;7234;59.306;18.024;2023-10-31T06:06:16;12.00;;;4.22;;
14300;SDS011;7234;59.306;18.024;2023-10-31T06:08:43;10.07;;;4.23;;
14300;SDS011;7234;59.306;18.024;2023-10-31T06:11:10;9.50;;;4.13;;
14300;SDS011;7234;59.306;18.024;2023-10-31T06:13:38;8.85;;;4.32;;
14300;SDS011;7234;59.306;18.024;2023-10-31T06:16:07;11.05;;;3.95;;
14300;SDS011;7234;59.306;18.024;2023-10-31T06:18:34;12.03;;;5.10;;
14300;SDS011;7234;59.306;18.024;2023-10-31T06:21:01;11.77;;;3.95;;
14300;SDS011;7234;59.306;18.024;2023-10-31T06:23:38;9.68;;;4.10;;
14300;SDS011;7234;59.306;18.024;2023-10-31T06:26:05;13.88;;;4.55;;
14300;SDS011;7234;59.306;18.024;2023-10-31T06:28:32;7.07;;;3.53;;
14300;SDS011;7234;59.306;18.024;2023-10-31T06:31:02;10.50;;;4.88;;
14300;SDS011;7234;59.306;18.024;2023-10-31T06:33:29;17.42;;;3.95;;
14300;SDS011;7234;59.306;18.024;2023-10-31T06:35:57;10.07;;;3.90;;
14300;SDS011;7234;59.306;18.024;2023-10-31T06:38:24;9.40;;;4.72;;
14300;SDS011;7234;59.306;18.024;2023-10-31T06:40:53;10.82;;;4.22;;
14300;SDS011;7234;59.306;18.024;2023-10-31T06:43:22;9.20;;;3.80;;
14300;SDS011;7234;59.306;18.024;2023-10-31T06:45:50;8.32;;;3.92;;
14300;SDS011;7234;59.306;18.024;2023-10-31T06:48:17;7.00;;;4.23;;
14300;SDS011;7234;59.306;18.024;2023-10-31T06:50:44;9.70;;;4.53;;
14300;SDS011;7234;59.306;18.024;2023-10-31T06:53:12;16.15;;;5.28;;
14300;SDS011;7234;59.306;18.024;2023-10-31T06:55:39;17.15;;;5.97;;
14300;SDS011;7234;59.306;18.024;2023-10-31T06:58:08;10.15;;;4.93;;
14300;SDS011;7234;59.306;18.024;2023-10-31T07:00:35;11.73;;;4.67;;
14300;SDS011;7234;59.306;18.024;2023-10-31T07:03:03;16.07;;;4.60;;
14300;SDS011;7234;59.306;18.024;2023-10-31T07:05:34;9.98;;;5.15;;
14300;SDS011;7234;59.306;18.024;2023-10-31T07:08:02;13.07;;;5.53;;
14300;SDS011;7234;59.306;18.024;2023-10-31T07:10:29;12.13;;;4.90;;
14300;SDS011;7234;59.306;18.024;2023-10-31T07:12:58;11.38;;;5.10;;
14300;SDS011;7234;59.306;18.024;2023-10-31T07:15:27;10.80;;;5.27;;
14300;SDS011;7234;59.306;18.024;2023-10-31T07:17:54;14.73;;;5.05;;
14300;SDS011;7234;59.306;18.024;2023-10-31T07:20:21;14.05;;;4.65;;
14300;SDS011;7234;59.306;18.024;2023-10-31T07:22:48;14.32;;;5.10;;
14300;SDS011;7234;59.306;18.024;2023-10-31T07:25:15;10.52;;;4.38;;
14300;SDS011;7234;59.306;18.024;2023-10-31T07:27:42;10.75;;;4.80;;
14300;SDS011;7234;59.306;18.024;2023-10-31T07:30:10;13.40;;;4.00;;
14300;SDS011;7234;59.306;18.024;2023-10-31T07:32:39;7.27;;;2.60;;
14300;SDS011;7234;59.306;18.024;2023-10-31T07:35:06;7.82;;;2.67;;
14300;SDS011;7234;59.306;18.024;2023-10-31T07:37:34;4.37;;;2.47;;
14300;SDS011;7234;59.306;18.024;2023-10-31T07:40:01;5.25;;;2.25;;
14300;SDS011;7234;59.306;18.024;2023-10-31T07:42:30;5.72;;;2.22;;
14300;SDS011;7234;59.306;18.024;2023-10-31T07:44:57;3.83;;;1.83;;
14300;SDS011;7234;59.306;18.024;2023-10-31T07:47:25;3.33;;;1.70;;
14300;SDS011;7234;59.306;18.024;2023-10-31T07:49:54;3.07;;;1.70;;
14300;SDS011;7234;59.306;18.024;2023-10-31T07:52:22;5.43;;;2.00;;
14300;SDS011;7234;59.306;18.024;2023-10-31T07:54:49;4.20;;;2.20;;
14300;SDS011;7234;59.306;18.024;2023-10-31T07:57:16;3.70;;;2.80;;
14300;SDS011;7234;59.306;18.024;2023-10-31T07:59:43;9.37;;;3.10;;
14300;SDS011;7234;59.306;18.024;2023-10-31T08:02:10;4.23;;;2.70;;
14300;SDS011;7234;59.306;18.024;2023-10-31T08:04:38;4.25;;;2.50;;
14300;SDS011;7234;59.306;18.024;2023-10-31T08:07:06;3.88;;;2.28;;
14300;SDS011;7234;59.306;18.024;2023-10-31T08:09:34;8.93;;;2.20;;
14300;SDS011;7234;59.306;18.024;2023-10-31T08:12:03;4.47;;;2.30;;
14300;SDS011;7234;59.306;18.024;2023-10-31T08:14:30;3.65;;;2.65;;
14300;SDS011;7234;59.306;18.024;2023-10-31T08:17:01;7.47;;;3.30;;
14300;SDS011;7234;59.306;18.024;2023-10-31T08:19:28;8.85;;;3.25;;
14300;SDS011;7234;59.306;18.024;2023-10-31T08:21:55;5.03;;;3.00;;
14300;SDS011;7234;59.306;18.024;2023-10-31T08:24:24;8.55;;;2.97;;
14300;SDS011;7234;59.306;18.024;2023-10-31T08:26:52;6.23;;;3.20;;
14300;SDS011;7234;59.306;18.024;2023-10-31T08:29:19;6.70;;;4.37;;
14300;SDS011;7234;59.306;18.024;2023-10-31T08:31:46;7.33;;;3.80;;
14300;SDS011;7234;59.306;18.024;2023-10-31T08:34:14;8.97;;;4.07;;
14300;SDS011;7234;59.306;18.024;2023-10-31T08:36:42;18.33;;;4.77;;
14300;SDS011;7234;59.306;18.024;2023-10-31T08:39:08;6.87;;;3.93;;
14300;SDS011;7234;59.306;18.024;2023-10-31T08:41:37;10.33;;;5.00;;
14300;SDS011;7234;59.306;18.024;2023-10-31T08:44:16;6.90;;;4.63;;
14300;SDS011;7234;59.306;18.024;2023-10-31T08:46:43;17.30;;;9.60;;
14300;SDS011;7234;59.306;18.024;2023-10-31T08:49:10;10.07;;;4.80;;
14300;SDS011;7234;59.306;18.024;2023-10-31T08:51:37;6.88;;;4.53;;
14300;SDS011;7234;59.306;18.024;2023-10-31T08:54:06;9.53;;;4.07;;
14300;SDS011;7234;59.306;18.024;2023-10-31T08:56:34;8.90;;;4.13;;
14300;SDS011;7234;59.306;18.024;2023-10-31T08:59:02;8.87;;;3.60;;
14300;SDS011;7234;59.306;18.024;2023-10-31T09:01:30;8.52;;;4.20;;
14300;SDS011;7234;59.306;18.024;2023-10-31T09:03:58;10.57;;;4.27;;
14300;SDS011;7234;59.306;18.024;2023-10-31T09:06:25;9.83;;;3.90;;
14300;SDS011;7234;59.306;18.024;2023-10-31T09:08:53;11.50;;;3.70;;
14300;SDS011;7234;59.306;18.024;2023-10-31T09:11:20;5.57;;;4.17;;
14300;SDS011;7234;59.306;18.024;2023-10-31T09:13:47;10.02;;;3.97;;
14300;SDS011;7234;59.306;18.024;2023-10-31T09:16:17;20.97;;;4.27;;
14300;SDS011;7234;59.306;18.024;2023-10-31T09:18:48;6.13;;;3.50;;
14300;SDS011;7234;59.306;18.024;2023-10-31T09:21:15;9.20;;;3.60;;
14300;SDS011;7234;59.306;18.024;2023-10-31T09:23:43;10.25;;;3.53;;
14300;SDS011;7234;59.306;18.024;2023-10-31T09:26:10;8.75;;;5.65;;
14300;SDS011;7234;59.306;18.024;2023-10-31T09:28:38;9.65;;;4.18;;
14300;SDS011;7234;59.306;18.024;2023-10-31T09:31:14;7.75;;;3.78;;
14300;SDS011;7234;59.306;18.024;2023-10-31T09:33:43;10.38;;;3.47;;
14300;SDS011;7234;59.306;18.024;2023-10-31T09:36:25;12.25;;;3.55;;
14300;SDS011;7234;59.306;18.024;2023-10-31T09:38:52;9.40;;;3.47;;
14300;SDS011;7234;59.306;18.024;2023-10-31T09:41:19;6.68;;;2.97;;
14300;SDS011;7234;59.306;18.024;2023-10-31T09:43:47;6.82;;;2.90;;
14300;SDS011;7234;59.306;18.024;2023-10-31T09:46:14;7.95;;;3.35;;
14300;SDS011;7234;59.306;18.024;2023-10-31T09:48:44;7.47;;;3.60;;
14300;SDS011;7234;59.306;18.024;2023-10-31T09:51:12;7.88;;;3.55;;
14300;SDS011;7234;59.306;18.024;2023-10-31T09:53:40;7.40;;;4.00;;
14300;SDS011;7234;59.306;18.024;2023-10-31T09:56:08;9.00;;;3.50;;
14300;SDS011;7234;59.306;18.024;2023-10-31T09:58:36;8.47;;;3.13;;
14300;SDS011;7234;59.306;18.024;2023-10-31T10:01:06;8.60;;;3.40;;
14300;SDS011;7234;59.306;18.024;2023-10-31T10:03:39;7.47;;;3.40;;
14300;SDS011;7234;59.306;18.024;2023-10-31T10:06:09;4.57;;;2.90;;
14300;SDS011;7234;59.306;18.024;2023-10-31T10:08:37;9.77;;;3.60;;
14300;SDS011;7234;59.306;18.024;2023-10-31T10:11:05;5.80;;;3.17;;
14300;SDS011;7234;59.306;18.024;2023-10-31T10:13:32;6.60;;;2.93;;
14300;SDS011;7234;59.306;18.024;2023-10-31T10:15:59;9.77;;;3.67;;
14300;SDS011;7234;59.306;18.024;2023-10-31T10:18:26;6.20;;;3.60;;
14300;SDS011;7234;59.306;18.024;2023-10-31T10:20:57;6.10;;;3.23;;
14300;SDS011;7234;59.306;18.024;2023-10-31T10:23:25;9.33;;;3.60;;
14300;SDS011;7234;59.306;18.024;2023-10-31T10:25:54;8.17;;;3.10;;
14300;SDS011;7234;59.306;18.024;2023-10-31T10:28:26;12.07;;;3.63;;
14300;SDS011;7234;59.306;18.024;2023-10-31T10:30:54;9.77;;;3.67;;
14300;SDS011;7234;59.306;18.024;2023-10-31T10:33:21;8.77;;;3.23;;
14300;SDS011;7234;59.306;18.024;2023-10-31T10:35:49;13.47;;;3.10;;
14300;SDS011;7234;59.306;18.024;2023-10-31T10:38:19;7.03;;;3.20;;
14300;SDS011;7234;59.306;18.024;2023-10-31T10:40:46;14.43;;;3.50;;
14300;SDS011;7234;59.306;18.024;2023-10-31T10:43:18;6.43;;;3.20;;
14300;SDS011;7234;59.306;18.024;2023-10-31T10:45:49;7.10;;;3.17;;
14300;SDS011;7234;59.306;18.024;2023-10-31T10:48:21;9.07;;;3.67;;
14300;SDS011;7234;59.306;18.024;2023-10-31T10:50:51;11.80;;;3.00;;
14300;SDS011;7234;59.306;18.024;2023-10-31T10:53:26;9.60;;;2.87;;
14300;SDS011;7234;59.306;18.024;2023-10-31T10:55:57;8.50;;;3.10;;
14300;SDS011;7234;59.306;18.024;2023-10-31T10:58:33;8.33;;;3.20;;
14300;SDS011;7234;59.306;18.024;2023-10-31T11:01:07;10.83;;;3.43;;
14300;SDS011;7234;59.306;18.024;2023-10-31T11:03:38;8.10;;;3.20;;
14300;SDS011;7234;59.306;18.024;2023-10-31T11:06:06;7.53;;;3.17;;
14300;SDS011;7234;59.306;18.024;2023-10-31T11:08:35;7.67;;;2.93;;
14300;SDS011;7234;59.306;18.024;2023-10-31T11:11:05;8.83;;;3.37;;
14300;SDS011;7234;59.306;18.024;2023-10-31T11:13:33;9.93;;;2.97;;
14300;SDS011;7234;59.306;18.024;2023-10-31T11:16:02;6.97;;;3.10;;
14300;SDS011;7234;59.306;18.024;2023-10-31T11:18:35;5.53;;;3.10;;
14300;SDS011;7234;59.306;18.024;2023-10-31T11:21:02;8.50;;;3.03;;
14300;SDS011;7234;59.306;18.024;2023-10-31T11:23:30;7.18;;;3.92;;
14300;SDS011;7234;59.306;18.024;2023-10-31T11:26:00;13.83;;;4.77;;
14300;SDS011;7234;59.306;18.024;2023-10-31T11:28:28;6.57;;;3.10;;
14300;SDS011;7234;59.306;18.024;2023-10-31T11:30:58;8.00;;;3.30;;
14300;SDS011;7234;59.306;18.024;2023-10-31T11:33:27;6.57;;;2.80;;
14300;SDS011;7234;59.306;18.024;2023-10-31T11:36:02;5.73;;;2.43;;
14300;SDS011;7234;59.306;18.024;2023-10-31T11:38:33;5.53;;;2.50;;
14300;SDS011;7234;59.306;18.024;2023-10-31T11:41:06;5.97;;;2.73;;
14300;SDS011;7234;59.306;18.024;2023-10-31T11:46:19;3.97;;;2.43;;
14300;SDS011;7234;59.306;18.024;2023-10-31T11:48:50;4.83;;;2.77;;
14300;SDS011;7234;59.306;18.024;2023-10-31T11:51:18;5.53;;;2.20;;
14300;SDS011;7234;59.306;18.024;2023-10-31T11:53:49;3.73;;;2.00;;
14300;SDS011;7234;59.306;18.024;2023-10-31T11:56:19;4.83;;;2.90;;
14300;SDS011;7234;59.306;18.024;2023-10-31T11:58:54;5.70;;;2.30;;
14300;SDS011;7234;59.306;18.024;2023-10-31T12:01:22;3.97;;;2.15;;
14300;SDS011;7234;59.306;18.024;2023-10-31T12:03:49;2.58;;;1.85;;
14300;SDS011;7234;59.306;18.024;2023-10-31T12:06:17;3.60;;;1.80;;
14300;SDS011;7234;59.306;18.024;2023-10-31T12:08:45;5.97;;;2.07;;
14300;SDS011;7234;59.306;18.024;2023-10-31T12:11:17;4.97;;;2.03;;
14300;SDS011;7234;59.306;18.024;2023-10-31T12:13:57;2.23;;;1.60;;
14300;SDS011;7234;59.306;18.024;2023-10-31T12:16:28;4.13;;;1.70;;
14300;SDS011;7234;59.306;18.024;2023-10-31T12:18:56;2.37;;;1.70;;
14300;SDS011;7234;59.306;18.024;2023-10-31T12:21:34;2.40;;;1.60;;
14300;SDS011;7234;59.306;18.024;2023-10-31T12:24:03;3.37;;;1.50;;
14300;SDS011;7234;59.306;18.024;2023-10-31T12:26:31;3.50;;;1.70;;
14300;SDS011;7234;59.306;18.024;2023-10-31T12:29:12;3.17;;;1.63;;
14300;SDS011;7234;59.306;18.024;2023-10-31T12:31:43;3.23;;;1.20;;
14300;SDS011;7234;59.306;18.024;2023-10-31T12:34:14;3.87;;;1.30;;
14300;SDS011;7234;59.306;18.024;2023-10-31T12:36:46;2.53;;;1.20;;
14300;SDS011;7234;59.306;18.024;2023-10-31T12:39:15;2.30;;;1.67;;
14300;SDS011;7234;59.306;18.024;2023-10-31T12:41:45;3.13;;;1.13;;
14300;SDS011;7234;59.306;18.024;2023-10-31T12:44:14;2.50;;;1.30;;
14300;SDS011;7234;59.306;18.024;2023-10-31T12:46:47;4.07;;;1.23;;
14300;SDS011;7234;59.306;18.024;2023-10-31T12:49:16;2.10;;;1.10;;
14300;SDS011;7234;59.306;18.024;2023-10-31T12:52:00;2.40;;;1.20;;
14300;SDS011;7234;59.306;18.024;2023-10-31T12:54:31;1.83;;;1.10;;
14300;SDS011;7234;59.306;18.024;2023-10-31T12:57:00;2.20;;;1.60;;
14300;SDS011;7234;59.306;18.024;2023-10-31T12:59:31;2.10;;;1.27;;
14300;SDS011;7234;59.306;18.024;2023-10-31T13:01:59;1.70;;;1.10;;
14300;SDS011;7234;59.306;18.024;2023-10-31T13:04:29;2.13;;;1.23;;
14300;SDS011;7234;59.306;18.024;2023-10-31T13:06:59;2.60;;;1.00;;
14300;SDS011;7234;59.306;18.024;2023-10-31T13:09:30;2.53;;;1.10;;
14300;SDS011;7234;59.306;18.024;2023-10-31T13:11:59;3.33;;;1.03;;
14300;SDS011;7234;59.306;18.024;2023-10-31T13:14:28;1.60;;;1.13;;
14300;SDS011;7234;59.306;18.024;2023-10-31T13:16:58;3.33;;;1.20;;
14300;SDS011;7234;59.306;18.024;2023-10-31T13:19:27;4.07;;;2.77;;
14300;SDS011;7234;59.306;18.024;2023-10-31T13:21:56;4.03;;;2.07;;
14300;SDS011;7234;59.306;18.024;2023-10-31T13:24:24;2.20;;;1.33;;
14300;SDS011;7234;59.306;18.024;2023-10-31T13:26:53;1.07;;;0.90;;
14300;SDS011;7234;59.306;18.024;2023-10-31T13:29:21;1.77;;;0.87;;
14300;SDS011;7234;59.306;18.024;2023-10-31T13:31:50;3.00;;;0.90;;
14300;SDS011;7234;59.306;18.024;2023-10-31T13:34:22;1.17;;;0.80;;
14300;SDS011;7234;59.306;18.024;2023-10-31T13:36:49;1.33;;;1.07;;
14300;SDS011;7234;59.306;18.024;2023-10-31T13:39:17;1.23;;;0.80;;
14300;SDS011;7234;59.306;18.024;2023-10-31T13:41:46;1.43;;;0.73;;
14300;SDS011;7234;59.306;18.024;2023-10-31T13:44:13;1.33;;;0.80;;
14300;SDS011;7234;59.306;18.024;2023-10-31T13:46:43;1.43;;;0.60;;
14300;SDS011;7234;59.306;18.024;2023-10-31T13:49:10;0.77;;;0.60;;
14300;SDS011;7234;59.306;18.024;2023-10-31T13:51:40;0.70;;;0.70;;
14300;SDS011;7234;59.306;18.024;2023-10-31T13:54:08;1.90;;;0.70;;
14300;SDS011;7234;59.306;18.024;2023-10-31T13:56:38;2.27;;;0.80;;
14300;SDS011;7234;59.306;18.024;2023-10-31T13:59:06;0.80;;;0.80;;
14300;SDS011;7234;59.306;18.024;2023-10-31T14:01:33;0.60;;;0.60;;
14300;SDS011;7234;59.306;18.024;2023-10-31T14:04:00;0.87;;;0.60;;
14300;SDS011;7234;59.306;18.024;2023-10-31T14:06:27;1.50;;;0.97;;
14300;SDS011;7234;59.306;18.024;2023-10-31T14:08:59;2.20;;;0.80;;
14300;SDS011;7234;59.306;18.024;2023-10-31T14:11:29;0.60;;;0.50;;
14300;SDS011;7234;59.306;18.024;2023-10-31T14:13:58;0.50;;;0.50;;
14300;SDS011;7234;59.306;18.024;2023-10-31T14:16:31;1.20;;;0.90;;
14300;SDS011;7234;59.306;18.024;2023-10-31T14:19:03;3.07;;;1.80;;
14300;SDS011;7234;59.306;18.024;2023-10-31T14:21:31;0.80;;;0.67;;
14300;SDS011;7234;59.306;18.024;2023-10-31T14:24:02;0.70;;;0.50;;
14300;SDS011;7234;59.306;18.024;2023-10-31T14:26:30;2.67;;;0.60;;
14300;SDS011;7234;59.306;18.024;2023-10-31T14:28:58;0.50;;;0.50;;
14300;SDS011;7234;59.306;18.024;2023-10-31T14:31:25;2.10;;;0.97;;
14300;SDS011;7234;59.306;18.024;2023-10-31T14:34:07;0.60;;;0.60;;
14300;SDS011;7234;59.306;18.024;2023-10-31T14:36:34;0.57;;;0.50;;
14300;SDS011;7234;59.306;18.024;2023-10-31T14:39:03;1.13;;;0.67;;
14300;SDS011;7234;59.306;18.024;2023-10-31T14:41:31;1.00;;;0.50;;
14300;SDS011;7234;59.306;18.024;2023-10-31T14:43:59;0.43;;;0.43;;
14300;SDS011;7234;59.306;18.024;2023-10-31T14:46:27;1.30;;;0.77;;
14300;SDS011;7234;59.306;18.024;2023-10-31T14:49:08;1.00;;;0.50;;
14300;SDS011;7234;59.306;18.024;2023-10-31T14:51:38;0.50;;;0.50;;
14300;SDS011;7234;59.306;18.024;2023-10-31T14:54:10;0.50;;;0.50;;